SAS714 EFOU-ESSA
Flight info
| Callsign | SAS714 |
|---|---|
| Flight time | N/A |
| Altitude | 36000 |
| Route | IXONO T255 DIVEG DCT SUBUG DCT BAKLA DCT HMR |
| Aircraft | B738/M-SDE2E3FGHIRWXY/LB1 |
Departure
| Time | 2026-05-09 04:31 |
|---|---|
| Airport | Oulu Airport (EFOU) |
Arrival
| Time | N/A |
|---|---|
| Airport | Stockholm-Arlanda Airport (ESSA) |
| Time | Latitude | Longitude | Altitude | Speed | Heading |
|---|---|---|---|---|---|
| 2026-05-09 04:16 | 64.92800 | 25.37355 | 49 ft | 0 kts | 30° |
| 2026-05-09 04:22 | 64.92797 | 25.37352 | 49 ft | 2 kts | 30° |
| 2026-05-09 04:22 | 64.92775 | 25.37321 | 49 ft | 4 kts | 31° |
| 2026-05-09 04:22 | 64.92755 | 25.37293 | 49 ft | 4 kts | 14° |
| 2026-05-09 04:23 | 64.92733 | 25.37300 | 49 ft | 4 kts | 312° |
| 2026-05-09 04:23 | 64.92722 | 25.37337 | 48 ft | 1 kts | 301° |
| 2026-05-09 04:23 | 64.92720 | 25.37344 | 49 ft | 0 kts | 301° |
| 2026-05-09 04:25 | 64.92729 | 25.37311 | 48 ft | 5 kts | 301° |
| 2026-05-09 04:25 | 64.92755 | 25.37205 | 49 ft | 10 kts | 301° |
| 2026-05-09 04:25 | 64.92793 | 25.37055 | 49 ft | 12 kts | 301° |
| 2026-05-09 04:26 | 64.92842 | 25.36866 | 49 ft | 15 kts | 301° |
| 2026-05-09 04:26 | 64.92899 | 25.36641 | 46 ft | 17 kts | 301° |
| 2026-05-09 04:26 | 64.92960 | 25.36404 | 48 ft | 17 kts | 301° |
| 2026-05-09 04:26 | 64.93018 | 25.36176 | 47 ft | 16 kts | 301° |
| 2026-05-09 04:27 | 64.93074 | 25.35956 | 47 ft | 15 kts | 301° |
| 2026-05-09 04:27 | 64.93134 | 25.35721 | 48 ft | 19 kts | 301° |
| 2026-05-09 04:27 | 64.93202 | 25.35455 | 50 ft | 19 kts | 301° |
| 2026-05-09 04:27 | 64.93267 | 25.35198 | 49 ft | 18 kts | 301° |
| 2026-05-09 04:28 | 64.93330 | 25.34950 | 46 ft | 17 kts | 301° |
| 2026-05-09 04:28 | 64.93392 | 25.34709 | 48 ft | 17 kts | 301° |
| 2026-05-09 04:28 | 64.93461 | 25.34437 | 50 ft | 21 kts | 301° |
| 2026-05-09 04:28 | 64.93534 | 25.34152 | 50 ft | 20 kts | 301° |
| 2026-05-09 04:29 | 64.93604 | 25.33875 | 47 ft | 19 kts | 301° |
| 2026-05-09 04:29 | 64.93672 | 25.33607 | 49 ft | 19 kts | 301° |
| 2026-05-09 04:29 | 64.93716 | 25.33363 | 50 ft | 14 kts | 262° |
| 2026-05-09 04:29 | 64.93644 | 25.33257 | 50 ft | 13 kts | 180° |
| 2026-05-09 04:30 | 64.93559 | 25.33311 | 49 ft | 13 kts | 138° |
| 2026-05-09 04:30 | 64.93520 | 25.33451 | 48 ft | 10 kts | 121° |
| 2026-05-09 04:30 | 64.93384 | 25.33981 | 53 ft | 74 kts | 121° |
| 2026-05-09 04:30 | 64.92998 | 25.35500 | 52 ft | 139 kts | 121° |
| 2026-05-09 04:31 | 64.92429 | 25.37702 | 433 ft | 160 kts | 122° |
| 2026-05-09 04:31 | 64.91867 | 25.39933 | 1273 ft | 164 kts | 127° |
| 2026-05-09 04:31 | 64.91268 | 25.42263 | 1939 ft | 176 kts | 126° |
| 2026-05-09 04:31 | 64.90571 | 25.44951 | 2390 ft | 203 kts | 126° |
| 2026-05-09 04:32 | 64.89581 | 25.47288 | 3014 ft | 203 kts | 161° |
| 2026-05-09 04:32 | 64.88197 | 25.47577 | 3481 ft | 206 kts | 202° |
| 2026-05-09 04:32 | 64.86895 | 25.45948 | 3832 ft | 227 kts | 214° |
| 2026-05-09 04:32 | 64.85475 | 25.43909 | 4325 ft | 246 kts | 213° |
| 2026-05-09 04:33 | 64.83992 | 25.41785 | 5179 ft | 252 kts | 213° |
| 2026-05-09 04:33 | 64.82496 | 25.39578 | 6057 ft | 256 kts | 219° |
| 2026-05-09 04:33 | 64.81300 | 25.36505 | 6948 ft | 256 kts | 234° |
| 2026-05-09 04:33 | 64.80229 | 25.33120 | 7760 ft | 261 kts | 234° |
| 2026-05-09 04:34 | 64.79139 | 25.29677 | 8597 ft | 265 kts | 234° |
| 2026-05-09 04:34 | 64.78027 | 25.26182 | 9427 ft | 269 kts | 234° |
| 2026-05-09 04:34 | 64.76908 | 25.22686 | 10265 ft | 273 kts | 234° |
| 2026-05-09 04:34 | 64.75750 | 25.19080 | 10866 ft | 285 kts | 234° |
| 2026-05-09 04:35 | 64.74501 | 25.15201 | 11048 ft | 310 kts | 234° |
| 2026-05-09 04:35 | 64.73153 | 25.11032 | 11242 ft | 333 kts | 234° |
| 2026-05-09 04:35 | 64.71715 | 25.06605 | 11652 ft | 347 kts | 234° |
| 2026-05-09 04:35 | 64.70240 | 25.02081 | 12360 ft | 352 kts | 234° |
| 2026-05-09 04:36 | 64.68754 | 24.97534 | 13198 ft | 353 kts | 234° |
| 2026-05-09 04:36 | 64.67255 | 24.92959 | 13972 ft | 356 kts | 235° |
| 2026-05-09 04:36 | 64.65741 | 24.88342 | 14625 ft | 360 kts | 235° |
| 2026-05-09 04:36 | 64.64209 | 24.83678 | 15277 ft | 364 kts | 235° |
| 2026-05-09 04:37 | 64.62661 | 24.78972 | 15927 ft | 367 kts | 235° |
| 2026-05-09 04:37 | 64.61097 | 24.74235 | 16569 ft | 371 kts | 235° |
| 2026-05-09 04:37 | 64.59525 | 24.69526 | 17197 ft | 375 kts | 233° |
| 2026-05-09 04:37 | 64.57558 | 24.65444 | 17797 ft | 385 kts | 218° |
| 2026-05-09 04:38 | 64.55345 | 24.61892 | 18439 ft | 388 kts | 218° |
| 2026-05-09 04:38 | 64.53107 | 24.58298 | 18987 ft | 392 kts | 218° |
| 2026-05-09 04:38 | 64.50864 | 24.54677 | 19590 ft | 392 kts | 218° |
| 2026-05-09 04:38 | 64.48626 | 24.51046 | 20228 ft | 393 kts | 219° |
| 2026-05-09 04:39 | 64.46386 | 24.47398 | 20732 ft | 396 kts | 219° |
| 2026-05-09 04:39 | 64.44118 | 24.43698 | 21235 ft | 400 kts | 219° |
| 2026-05-09 04:39 | 64.41837 | 24.39978 | 21757 ft | 402 kts | 219° |
| 2026-05-09 04:39 | 64.39541 | 24.36237 | 22281 ft | 405 kts | 219° |
| 2026-05-09 04:40 | 64.37226 | 24.32474 | 22775 ft | 407 kts | 219° |
| 2026-05-09 04:40 | 64.34891 | 24.28685 | 23274 ft | 410 kts | 219° |
| 2026-05-09 04:40 | 64.32579 | 24.24941 | 23746 ft | 413 kts | 219° |
| 2026-05-09 04:40 | 64.30220 | 24.21130 | 24170 ft | 415 kts | 219° |
| 2026-05-09 04:41 | 64.27847 | 24.17306 | 24581 ft | 417 kts | 219° |
| 2026-05-09 04:41 | 64.25464 | 24.13473 | 24977 ft | 418 kts | 219° |
| 2026-05-09 04:41 | 64.23072 | 24.09635 | 25375 ft | 420 kts | 219° |
| 2026-05-09 04:41 | 64.20666 | 24.05783 | 25766 ft | 422 kts | 219° |
| 2026-05-09 04:42 | 64.18255 | 24.01929 | 26140 ft | 423 kts | 219° |
| 2026-05-09 04:42 | 64.15835 | 23.98069 | 26511 ft | 425 kts | 219° |
| 2026-05-09 04:42 | 64.13399 | 23.94192 | 26877 ft | 426 kts | 219° |
| 2026-05-09 04:42 | 64.10958 | 23.90316 | 27233 ft | 428 kts | 219° |
| 2026-05-09 04:43 | 64.08502 | 23.86424 | 27579 ft | 430 kts | 219° |
| 2026-05-09 04:43 | 64.06066 | 23.82571 | 27912 ft | 431 kts | 219° |
| 2026-05-09 04:43 | 64.03595 | 23.78668 | 28245 ft | 433 kts | 219° |
| 2026-05-09 04:43 | 64.01108 | 23.74753 | 28558 ft | 434 kts | 219° |
| 2026-05-09 04:44 | 63.98622 | 23.70824 | 28849 ft | 435 kts | 219° |
| 2026-05-09 04:44 | 63.96272 | 23.66485 | 29126 ft | 435 kts | 225° |
| 2026-05-09 04:44 | 63.94027 | 23.61880 | 29585 ft | 432 kts | 226° |
| 2026-05-09 04:44 | 63.91823 | 23.57283 | 30126 ft | 429 kts | 226° |
| 2026-05-09 04:45 | 63.89630 | 23.52712 | 30603 ft | 426 kts | 226° |
| 2026-05-09 04:45 | 63.87443 | 23.48187 | 30953 ft | 425 kts | 226° |
| 2026-05-09 04:45 | 63.85252 | 23.43690 | 31277 ft | 425 kts | 225° |
| 2026-05-09 04:45 | 63.83056 | 23.39214 | 31645 ft | 423 kts | 225° |
| 2026-05-09 04:46 | 63.80873 | 23.34789 | 32025 ft | 421 kts | 225° |
| 2026-05-09 04:46 | 63.78718 | 23.30436 | 32388 ft | 419 kts | 225° |
| 2026-05-09 04:46 | 63.76538 | 23.26046 | 32728 ft | 418 kts | 225° |
| 2026-05-09 04:46 | 63.74367 | 23.21683 | 33044 ft | 417 kts | 225° |
| 2026-05-09 04:47 | 63.72198 | 23.17330 | 33301 ft | 418 kts | 224° |
| 2026-05-09 04:47 | 63.70016 | 23.12962 | 33541 ft | 419 kts | 224° |
| 2026-05-09 04:47 | 63.67839 | 23.08613 | 33881 ft | 417 kts | 224° |
| 2026-05-09 04:47 | 63.65671 | 23.04293 | 34257 ft | 415 kts | 224° |
| 2026-05-09 04:48 | 63.63510 | 22.99995 | 34537 ft | 414 kts | 224° |
| 2026-05-09 04:48 | 63.61345 | 22.95698 | 34706 ft | 416 kts | 224° |
| 2026-05-09 04:48 | 63.59170 | 22.91388 | 34864 ft | 418 kts | 224° |
| 2026-05-09 04:48 | 63.56985 | 22.87068 | 35075 ft | 418 kts | 224° |
| 2026-05-09 04:49 | 63.54804 | 22.82765 | 35291 ft | 418 kts | 224° |
| 2026-05-09 04:49 | 63.52616 | 22.78460 | 35468 ft | 419 kts | 224° |
| 2026-05-09 04:49 | 63.50418 | 22.74141 | 35631 ft | 420 kts | 224° |
| 2026-05-09 04:49 | 63.48216 | 22.69824 | 35767 ft | 422 kts | 223° |
| 2026-05-09 04:50 | 63.46026 | 22.65538 | 35872 ft | 424 kts | 223° |
| 2026-05-09 04:50 | 63.43775 | 22.61142 | 36091 ft | 424 kts | 223° |
| 2026-05-09 04:50 | 63.41580 | 22.56868 | 36328 ft | 423 kts | 223° |
| 2026-05-09 04:51 | 63.37001 | 22.48470 | 36376 ft | 428 kts | 220° |
| 2026-05-09 04:51 | 63.32234 | 22.40538 | 36368 ft | 425 kts | 219° |
| 2026-05-09 04:52 | 63.27516 | 22.32661 | 36372 ft | 422 kts | 219° |
| 2026-05-09 04:52 | 63.22878 | 22.24868 | 36353 ft | 420 kts | 219° |
| 2026-05-09 04:53 | 63.18216 | 22.17023 | 36379 ft | 423 kts | 219° |
| 2026-05-09 04:53 | 63.13487 | 22.09078 | 36383 ft | 430 kts | 219° |
| 2026-05-09 04:54 | 63.08696 | 22.01068 | 36378 ft | 432 kts | 219° |
| 2026-05-09 04:54 | 63.03892 | 21.93072 | 36377 ft | 433 kts | 219° |
| 2026-05-09 04:55 | 62.99098 | 21.85127 | 36370 ft | 433 kts | 219° |
| 2026-05-09 04:55 | 62.94295 | 21.77194 | 36373 ft | 431 kts | 219° |
| 2026-05-09 04:56 | 62.89485 | 21.69331 | 36345 ft | 430 kts | 218° |
| 2026-05-09 04:56 | 62.84660 | 21.61753 | 36357 ft | 428 kts | 217° |
| 2026-05-09 04:57 | 62.79820 | 21.54207 | 36377 ft | 426 kts | 218° |
| 2026-05-09 04:57 | 62.75000 | 21.46683 | 36371 ft | 425 kts | 218° |
| 2026-05-09 04:58 | 62.70186 | 21.39187 | 36363 ft | 425 kts | 217° |
| 2026-05-09 04:58 | 62.65370 | 21.31716 | 36375 ft | 425 kts | 217° |
| 2026-05-09 04:59 | 62.60582 | 21.24302 | 36382 ft | 426 kts | 217° |
| 2026-05-09 04:59 | 62.55716 | 21.16792 | 36380 ft | 427 kts | 217° |
| 2026-05-09 05:00 | 62.50879 | 21.09358 | 36383 ft | 429 kts | 217° |
| 2026-05-09 05:00 | 62.46006 | 21.01899 | 36371 ft | 430 kts | 216° |
| 2026-05-09 05:01 | 62.41114 | 20.94440 | 36384 ft | 431 kts | 216° |
| 2026-05-09 05:01 | 62.36241 | 20.87041 | 36383 ft | 432 kts | 216° |
| 2026-05-09 05:02 | 62.31312 | 20.79589 | 36377 ft | 433 kts | 216° |
| 2026-05-09 05:02 | 62.26372 | 20.72150 | 36375 ft | 434 kts | 216° |
| 2026-05-09 05:03 | 62.21423 | 20.64727 | 36374 ft | 434 kts | 216° |
| 2026-05-09 05:03 | 62.16475 | 20.57338 | 36371 ft | 433 kts | 216° |
| 2026-05-09 05:04 | 62.11530 | 20.49981 | 36376 ft | 433 kts | 216° |
| 2026-05-09 05:04 | 62.06579 | 20.42646 | 36378 ft | 433 kts | 216° |
| 2026-05-09 05:05 | 62.01634 | 20.35349 | 36378 ft | 432 kts | 216° |
| 2026-05-09 05:05 | 61.96690 | 20.28083 | 36377 ft | 432 kts | 216° |
| 2026-05-09 05:06 | 61.91749 | 20.20850 | 36379 ft | 431 kts | 216° |
| 2026-05-09 05:06 | 61.86843 | 20.13696 | 36377 ft | 430 kts | 216° |
| 2026-05-09 05:07 | 61.81910 | 20.06533 | 36376 ft | 429 kts | 216° |
| 2026-05-09 05:07 | 61.76973 | 19.99392 | 36374 ft | 429 kts | 215° |
| 2026-05-09 05:08 | 61.72882 | 19.93494 | 36375 ft | 429 kts | 215° |
| 2026-05-09 05:08 | 61.67953 | 19.86416 | 36363 ft | 428 kts | 215° |
| 2026-05-09 05:09 | 61.62229 | 19.78231 | 36370 ft | 427 kts | 215° |
| 2026-05-09 05:09 | 61.58112 | 19.72366 | 36373 ft | 427 kts | 215° |
| 2026-05-09 05:09 | 61.55635 | 19.68844 | 35894 ft | 433 kts | 215° |
| 2026-05-09 05:10 | 61.53145 | 19.65313 | 35332 ft | 431 kts | 215° |
| 2026-05-09 05:10 | 61.50697 | 19.61849 | 34738 ft | 430 kts | 215° |
| 2026-05-09 05:10 | 61.48209 | 19.58335 | 34040 ft | 430 kts | 215° |
| 2026-05-09 05:10 | 61.45733 | 19.54844 | 33318 ft | 428 kts | 214° |
| 2026-05-09 05:11 | 61.43264 | 19.51367 | 32705 ft | 426 kts | 214° |
| 2026-05-09 05:11 | 61.40825 | 19.47940 | 32232 ft | 419 kts | 214° |
| 2026-05-09 05:11 | 61.38425 | 19.44576 | 31778 ft | 413 kts | 214° |
| 2026-05-09 05:11 | 61.36058 | 19.41357 | 31328 ft | 408 kts | 211° |
| 2026-05-09 05:12 | 61.33557 | 19.38708 | 31077 ft | 398 kts | 206° |
| 2026-05-09 05:12 | 61.31068 | 19.36306 | 30818 ft | 391 kts | 205° |
| 2026-05-09 05:12 | 61.28601 | 19.33955 | 30461 ft | 388 kts | 205° |
| 2026-05-09 05:12 | 61.26164 | 19.31631 | 29999 ft | 383 kts | 205° |
| 2026-05-09 05:13 | 61.23755 | 19.29323 | 29527 ft | 378 kts | 206° |
| 2026-05-09 05:13 | 61.21377 | 19.27035 | 29067 ft | 374 kts | 206° |
| 2026-05-09 05:13 | 61.19030 | 19.24772 | 28622 ft | 371 kts | 206° |
| 2026-05-09 05:13 | 61.16696 | 19.22518 | 28171 ft | 367 kts | 206° |
| 2026-05-09 05:14 | 61.14418 | 19.20318 | 27718 ft | 367 kts | 205° |
| 2026-05-09 05:14 | 61.12043 | 19.18026 | 27273 ft | 379 kts | 205° |
| 2026-05-09 05:14 | 61.09637 | 19.15707 | 26817 ft | 390 kts | 205° |
| 2026-05-09 05:14 | 61.07186 | 19.13351 | 26330 ft | 387 kts | 205° |
| 2026-05-09 05:15 | 61.04752 | 19.11014 | 25857 ft | 383 kts | 205° |
| 2026-05-09 05:15 | 61.02340 | 19.08702 | 25393 ft | 380 kts | 205° |
| 2026-05-09 05:15 | 60.99950 | 19.06415 | 24938 ft | 377 kts | 205° |
| 2026-05-09 05:15 | 60.97572 | 19.04144 | 24486 ft | 375 kts | 205° |
| 2026-05-09 05:16 | 60.95207 | 19.01889 | 24032 ft | 373 kts | 205° |
| 2026-05-09 05:16 | 60.92857 | 18.99650 | 23500 ft | 372 kts | 205° |
| 2026-05-09 05:16 | 60.90514 | 18.97423 | 23006 ft | 369 kts | 205° |
| 2026-05-09 05:16 | 60.88226 | 18.95252 | 22553 ft | 366 kts | 205° |
| 2026-05-09 05:17 | 60.85922 | 18.93068 | 22101 ft | 363 kts | 205° |
| 2026-05-09 05:17 | 60.83634 | 18.90904 | 21659 ft | 360 kts | 205° |
| 2026-05-09 05:17 | 60.81367 | 18.88762 | 21226 ft | 358 kts | 205° |
| 2026-05-09 05:17 | 60.79112 | 18.86635 | 20792 ft | 355 kts | 205° |
| 2026-05-09 05:18 | 60.76874 | 18.84528 | 20370 ft | 353 kts | 205° |
| 2026-05-09 05:18 | 60.74646 | 18.82433 | 19944 ft | 351 kts | 205° |
| 2026-05-09 05:18 | 60.72432 | 18.80355 | 19521 ft | 349 kts | 205° |
| 2026-05-09 05:18 | 60.70255 | 18.78314 | 19105 ft | 348 kts | 205° |
| 2026-05-09 05:19 | 60.68061 | 18.76260 | 18678 ft | 346 kts | 205° |
| 2026-05-09 05:19 | 60.65874 | 18.74216 | 18202 ft | 345 kts | 205° |
| 2026-05-09 05:19 | 60.63697 | 18.72185 | 17748 ft | 343 kts | 205° |
| 2026-05-09 05:19 | 60.61526 | 18.70162 | 17315 ft | 341 kts | 205° |
| 2026-05-09 05:20 | 60.59377 | 18.68163 | 16887 ft | 338 kts | 205° |
| 2026-05-09 05:20 | 60.57239 | 18.66176 | 16470 ft | 336 kts | 205° |
| 2026-05-09 05:20 | 60.55119 | 18.64209 | 16060 ft | 334 kts | 205° |
| 2026-05-09 05:20 | 60.53011 | 18.62257 | 15651 ft | 332 kts | 205° |
| 2026-05-09 05:21 | 60.50911 | 18.60314 | 15248 ft | 330 kts | 205° |
| 2026-05-09 05:21 | 60.48826 | 18.58388 | 14843 ft | 329 kts | 205° |
| 2026-05-09 05:21 | 60.46751 | 18.56473 | 14440 ft | 327 kts | 205° |
| 2026-05-09 05:21 | 60.44707 | 18.54590 | 14025 ft | 326 kts | 204° |
| 2026-05-09 05:22 | 60.42648 | 18.52696 | 13573 ft | 324 kts | 204° |
| 2026-05-09 05:22 | 60.40595 | 18.50809 | 13149 ft | 323 kts | 204° |
| 2026-05-09 05:22 | 60.38558 | 18.48940 | 12739 ft | 321 kts | 204° |
| 2026-05-09 05:22 | 60.36525 | 18.47077 | 12340 ft | 319 kts | 204° |
| 2026-05-09 05:23 | 60.34508 | 18.45231 | 11934 ft | 318 kts | 204° |
| 2026-05-09 05:23 | 60.32499 | 18.43394 | 11535 ft | 316 kts | 204° |
| 2026-05-09 05:23 | 60.30496 | 18.41569 | 11139 ft | 315 kts | 203° |
| 2026-05-09 05:23 | 60.28522 | 18.39770 | 10995 ft | 306 kts | 203° |
| 2026-05-09 05:24 | 60.26593 | 18.38259 | 10751 ft | 299 kts | 190° |
| 2026-05-09 05:24 | 60.24559 | 18.37920 | 10638 ft | 289 kts | 181° |
| 2026-05-09 05:24 | 60.22571 | 18.37770 | 10480 ft | 282 kts | 181° |
| 2026-05-09 05:24 | 60.20638 | 18.37612 | 10306 ft | 275 kts | 181° |
| 2026-05-09 05:25 | 60.18725 | 18.37439 | 9993 ft | 274 kts | 182° |
| 2026-05-09 05:25 | 60.16835 | 18.37254 | 9701 ft | 271 kts | 182° |
| 2026-05-09 05:25 | 60.13094 | 18.36862 | 9148 ft | 267 kts | 182° |
| 2026-05-09 05:26 | 60.11245 | 18.36662 | 8869 ft | 265 kts | 182° |
| 2026-05-09 05:26 | 60.09409 | 18.36464 | 8598 ft | 263 kts | 181° |
| 2026-05-09 05:26 | 60.07588 | 18.36251 | 8311 ft | 262 kts | 182° |
| 2026-05-09 05:26 | 60.05800 | 18.36001 | 8045 ft | 260 kts | 182° |
| 2026-05-09 05:27 | 60.03993 | 18.35743 | 7769 ft | 259 kts | 182° |
| 2026-05-09 05:27 | 60.02202 | 18.35481 | 7509 ft | 257 kts | 182° |
| 2026-05-09 05:27 | 60.00423 | 18.35223 | 7242 ft | 256 kts | 182° |
| 2026-05-09 05:27 | 59.98650 | 18.34969 | 6974 ft | 254 kts | 182° |
| 2026-05-09 05:28 | 59.96891 | 18.34718 | 6698 ft | 253 kts | 181° |
| 2026-05-09 05:28 | 59.95136 | 18.34471 | 6411 ft | 252 kts | 181° |
| 2026-05-09 05:28 | 59.93388 | 18.34223 | 6128 ft | 251 kts | 181° |
| 2026-05-09 05:28 | 59.91652 | 18.33968 | 5856 ft | 251 kts | 183° |
| 2026-05-09 05:29 | 59.89996 | 18.32851 | 5567 ft | 257 kts | 212° |
| 2026-05-09 05:29 | 59.88813 | 18.30178 | 5314 ft | 260 kts | 238° |
| 2026-05-09 05:29 | 59.88059 | 18.26927 | 5149 ft | 256 kts | 243° |
| 2026-05-09 05:29 | 59.87370 | 18.23731 | 4790 ft | 253 kts | 244° |
| 2026-05-09 05:30 | 59.86694 | 18.20599 | 4636 ft | 241 kts | 243° |
| 2026-05-09 05:30 | 59.86038 | 18.17590 | 4492 ft | 232 kts | 243° |
| 2026-05-09 05:30 | 59.85397 | 18.14691 | 4334 ft | 228 kts | 243° |
| 2026-05-09 05:30 | 59.84754 | 18.11805 | 4113 ft | 229 kts | 242° |
| 2026-05-09 05:31 | 59.84107 | 18.08919 | 3918 ft | 228 kts | 243° |
| 2026-05-09 05:31 | 59.83468 | 18.06067 | 3682 ft | 223 kts | 243° |
| 2026-05-09 05:31 | 59.82749 | 18.03393 | 3433 ft | 216 kts | 225° |
| 2026-05-09 05:31 | 59.81507 | 18.01962 | 3222 ft | 205 kts | 192° |
| 2026-05-09 05:32 | 59.80111 | 18.01405 | 3055 ft | 204 kts | 187° |
| 2026-05-09 05:32 | 59.78691 | 18.00894 | 2834 ft | 212 kts | 187° |
| 2026-05-09 05:32 | 59.77231 | 18.00368 | 2578 ft | 213 kts | 187° |
| 2026-05-09 05:32 | 59.75816 | 17.99853 | 2269 ft | 200 kts | 187° |
| 2026-05-09 05:33 | 59.74491 | 17.99370 | 2017 ft | 187 kts | 187° |
| 2026-05-09 05:33 | 59.73253 | 17.98920 | 1764 ft | 174 kts | 187° |
| 2026-05-09 05:33 | 59.72105 | 17.98503 | 1559 ft | 161 kts | 186° |
| 2026-05-09 05:33 | 59.71058 | 17.98121 | 1385 ft | 144 kts | 186° |
| 2026-05-09 05:34 | 59.70067 | 17.97766 | 1169 ft | 147 kts | 186° |
| 2026-05-09 05:34 | 59.69069 | 17.97403 | 966 ft | 145 kts | 187° |
| 2026-05-09 05:34 | 59.68088 | 17.97046 | 784 ft | 143 kts | 188° |
| 2026-05-09 05:34 | 59.67102 | 17.96689 | 605 ft | 145 kts | 188° |
| 2026-05-09 05:35 | 59.66763 | 17.96570 | 543 ft | 146 kts | 188° |